Time;durP1;ratioP1;P1;durP2;ratioP2;P2;SDS_P1;SDS_P2;PMS_P1;PMS_P2;Temp;Humidity;BMP_temperature;BMP_pressure;BME280_temperature;BME280_humidity;BME280_pressure;Samples;Min_cycle;Max_cycle;Signal;HPM_P1;HPM_P2
2020/12/09 00:02:18;;;;;;;5.95;4.78;;;7.20;99.90;;;;;;5051088;28;20024;-75
2020/12/09 00:04:43;;;;;;;14.45;8.05;;;7.10;99.90;;;;;;5050780;28;20113;-75
2020/12/09 00:07:09;;;;;;;15.93;8.32;;;7.10;99.90;;;;;;5050341;28;20059;-75
2020/12/09 00:09:35;;;;;;;8.23;5.80;;;7.10;99.90;;;;;;5049357;28;20054;-75
2020/12/09 00:12:00;;;;;;;7.93;5.30;;;7.10;99.90;;;;;;5050460;28;20041;-76
2020/12/09 00:14:27;;;;;;;7.35;5.15;;;7.10;99.90;;;;;;5050441;28;20074;-75
2020/12/09 00:16:53;;;;;;;3.13;2.80;;;7.20;99.90;;;;;;5048953;28;20040;-76
2020/12/09 00:19:18;;;;;;;1.40;1.30;;;7.10;99.90;;;;;;5050371;28;20025;-76
2020/12/09 00:21:44;;;;;;;1.38;1.27;;;7.20;99.90;;;;;;5050673;28;20025;-76
2020/12/09 00:24:10;;;;;;;4.68;1.48;;;7.30;99.90;;;;;;5050444;28;20575;-75
2020/12/09 00:26:35;;;;;;;1.50;1.40;;;7.30;99.90;;;;;;5049054;28;20368;-75
2020/12/09 00:29:01;;;;;;;1.42;1.30;;;7.40;99.90;;;;;;5049146;28;20364;-75
2020/12/09 00:31:30;;;;;;;0.88;0.82;;;7.40;99.90;;;;;;5049725;28;20631;-75
2020/12/09 00:33:56;;;;;;;1.50;1.40;;;7.40;99.90;;;;;;5048676;28;20464;-76
2020/12/09 00:36:25;;;;;;;3.92;3.53;;;7.50;99.90;;;;;;5048458;28;20043;-75
2020/12/09 00:38:52;;;;;;;4.82;4.18;;;7.50;99.90;;;;;;5115379;27;20029;-76
2020/12/09 00:41:20;;;;;;;4.28;3.33;;;7.30;99.90;;;;;;5037315;28;20468;-75
2020/12/09 00:43:46;;;;;;;3.70;3.40;;;7.30;99.90;;;;;;5048556;28;20033;-76
2020/12/09 00:46:19;;;;;;;4.72;3.92;;;7.30;99.90;;;;;;5049629;28;20029;-76
2020/12/09 00:48:45;;;;;;;5.70;4.97;;;7.30;99.90;;;;;;5050476;28;20021;-76
2020/12/09 00:51:13;;;;;;;5.97;4.85;;;7.20;99.90;;;;;;5050132;28;20137;-76
2020/12/09 00:53:38;;;;;;;6.15;4.82;;;7.10;99.90;;;;;;5048951;28;20037;-76
2020/12/09 00:56:06;;;;;;;7.15;4.35;;;7.10;99.90;;;;;;5050189;28;20025;-75
2020/12/09 00:58:32;;;;;;;5.93;4.78;;;7.10;99.90;;;;;;5049783;28;20036;-76
2020/12/09 01:00:58;;;;;;;4.93;4.43;;;7.10;99.90;;;;;;5049824;28;20453;-76
2020/12/09 01:03:23;;;;;;;6.28;4.40;;;7.10;99.90;;;;;;5050075;28;20032;-76
2020/12/09 01:05:49;;;;;;;5.50;4.30;;;7.10;99.90;;;;;;5049557;28;20028;-76
2020/12/09 01:08:14;;;;;;;5.95;3.95;;;7.10;99.90;;;;;;5050004;28;20484;-76
2020/12/09 01:10:40;;;;;;;4.43;4.13;;;7.10;99.90;;;;;;5048607;28;20439;-75
2020/12/09 01:13:06;;;;;;;5.90;3.38;;;7.10;99.90;;;;;;5050050;28;20077;-76
2020/12/09 01:15:31;;;;;;;3.80;3.50;;;7.10;99.90;;;;;;5050061;28;20032;-75
2020/12/09 01:17:57;;;;;;;4.28;3.88;;;7.20;99.90;;;;;;5049617;28;20036;-76
2020/12/09 01:20:23;;;;;;;3.95;3.67;;;7.20;99.90;;;;;;5048512;28;20357;-75
2020/12/09 01:22:48;;;;;;;3.97;3.67;;;7.20;99.90;;;;;;5050106;28;20419;-76
2020/12/09 01:25:14;;;;;;;4.38;4.07;;;7.20;99.90;;;;;;5048399;28;20073;-75
2020/12/09 01:27:39;;;;;;;4.63;4.22;;;7.20;99.90;;;;;;5048635;28;20611;-76
2020/12/09 01:30:05;;;;;;;3.83;3.47;;;7.20;99.90;;;;;;5049836;28;20018;-76
2020/12/09 01:32:31;;;;;;;4.75;4.32;;;7.20;99.90;;;;;;5049494;28;20021;-76
2020/12/09 01:34:56;;;;;;;5.25;4.15;;;7.20;99.90;;;;;;5049405;28;20025;-75
2020/12/09 01:37:22;;;;;;;4.93;4.43;;;7.20;99.90;;;;;;5048272;28;20025;-76
2020/12/09 01:39:48;;;;;;;4.57;4.18;;;7.10;99.90;;;;;;5049836;28;20036;-75
2020/12/09 01:42:16;;;;;;;6.47;4.75;;;7.10;99.90;;;;;;5049724;28;20039;-75
2020/12/09 01:44:42;;;;;;;5.05;4.45;;;7.10;99.90;;;;;;5048316;28;20414;-76
2020/12/09 01:47:08;;;;;;;3.80;3.50;;;7.10;99.90;;;;;;5048267;28;20032;-76
2020/12/09 01:49:34;;;;;;;7.47;4.18;;;7.10;99.90;;;;;;5048144;28;20029;-76
2020/12/09 01:52:02;;;;;;;4.28;3.97;;;7.10;99.90;;;;;;5048042;28;20025;-75
2020/12/09 01:54:28;;;;;;;4.75;3.92;;;7.20;99.90;;;;;;5047999;28;20033;-75
2020/12/09 01:57:12;;;;;;;4.70;4.07;;;7.20;99.90;;;;;;5047851;28;20025;-76
2020/12/09 01:59:39;;;;;;;4.30;3.90;;;7.20;99.90;;;;;;5049251;28;20021;-75
2020/12/09 02:02:05;;;;;;;5.25;4.43;;;7.10;99.90;;;;;;5047523;28;20429;-75
2020/12/09 02:04:32;;;;;;;4.25;3.85;;;7.10;99.90;;;;;;5049144;28;20421;-76
2020/12/09 02:06:58;;;;;;;3.90;3.63;;;7.10;99.90;;;;;;5049318;28;20057;-75
2020/12/09 02:09:25;;;;;;;3.30;3.00;;;7.20;99.90;;;;;;5049378;28;20029;-76
2020/12/09 02:11:52;;;;;;;3.20;3.00;;;7.20;99.90;;;;;;5048875;28;20037;-75
2020/12/09 02:14:18;;;;;;;3.58;3.35;;;7.20;99.90;;;;;;5048089;28;20051;-75
2020/12/09 02:16:48;;;;;;;3.38;3.05;;;7.20;99.90;;;;;;5047870;28;20528;-75
2020/12/09 02:19:13;;;;;;;2.72;2.53;;;7.20;99.90;;;;;;5047255;28;20081;-76
2020/12/09 02:21:39;;;;;;;3.17;2.97;;;7.30;99.90;;;;;;5047681;28;20428;-76
2020/12/09 02:24:05;;;;;;;6.32;3.45;;;7.20;99.90;;;;;;5049119;28;20554;-75
2020/12/09 02:26:30;;;;;;;3.63;3.33;;;7.20;99.90;;;;;;5049242;28;20057;-76
2020/12/09 02:28:56;;;;;;;3.33;3.00;;;7.20;99.90;;;;;;5048819;28;20021;-76
2020/12/09 02:31:22;;;;;;;4.43;3.97;;;7.30;99.90;;;;;;5048968;28;20014;-76
2020/12/09 02:33:47;;;;;;;4.03;3.60;;;7.20;99.90;;;;;;5047591;28;20403;-76
2020/12/09 02:36:14;;;;;;;3.63;3.33;;;7.20;99.90;;;;;;5048794;28;20027;-77
2020/12/09 02:38:39;;;;;;;3.17;2.90;;;7.20;99.90;;;;;;5049052;28;20115;-76
2020/12/09 02:41:05;;;;;;;2.83;2.63;;;7.30;99.90;;;;;;5052343;28;20107;-76
2020/12/09 02:43:31;;;;;;;2.47;2.28;;;7.20;99.90;;;;;;5052280;28;20073;-76
2020/12/09 02:45:56;;;;;;;2.22;2.13;;;7.30;99.90;;;;;;5052299;28;20072;-76
2020/12/09 02:48:22;;;;;;;2.30;2.20;;;7.20;99.90;;;;;;5051888;28;20044;-76
2020/12/09 02:50:48;;;;;;;4.65;2.38;;;7.30;99.90;;;;;;5052178;28;20021;-76
2020/12/09 02:53:13;;;;;;;7.20;3.00;;;7.30;99.90;;;;;;5050645;28;20048;-76
2020/12/09 02:55:39;;;;;;;5.85;2.97;;;7.30;99.90;;;;;;5051817;28;20024;-76
2020/12/09 02:58:05;;;;;;;2.63;2.42;;;7.30;99.90;;;;;;5051942;28;20029;-76
2020/12/09 03:00:31;;;;;;;1.90;1.80;;;7.30;99.90;;;;;;5051767;28;20021;-76
2020/12/09 03:02:57;;;;;;;1.77;1.67;;;7.30;99.90;;;;;;5050552;28;20188;-76
2020/12/09 03:05:22;;;;;;;1.58;1.48;;;7.30;99.90;;;;;;5052064;28;20025;-76
2020/12/09 03:07:48;;;;;;;1.73;1.63;;;7.30;99.90;;;;;;5051673;28;20116;-76
2020/12/09 03:10:14;;;;;;;2.15;1.77;;;7.30;99.90;;;;;;5051920;28;20021;-76
2020/12/09 03:12:39;;;;;;;2.63;1.75;;;7.30;99.90;;;;;;5051543;28;20362;-76
2020/12/09 03:15:05;;;;;;;1.70;1.60;;;7.30;99.90;;;;;;5051778;28;20077;-76
2020/12/09 03:17:30;;;;;;;1.50;1.40;;;7.30;99.90;;;;;;5051442;28;20029;-76
2020/12/09 03:19:56;;;;;;;2.55;1.63;;;7.30;99.90;;;;;;5051967;28;20114;-76
2020/12/09 03:22:22;;;;;;;1.80;1.70;;;7.30;99.90;;;;;;5051710;28;20023;-76
2020/12/09 03:24:47;;;;;;;2.20;2.08;;;7.30;99.90;;;;;;5051635;28;20425;-76
2020/12/09 03:27:13;;;;;;;2.78;1.65;;;7.30;99.90;;;;;;5051135;28;20021;-76
2020/12/09 03:29:39;;;;;;;1.70;1.60;;;7.30;99.90;;;;;;5050228;28;20037;-76
2020/12/09 03:32:05;;;;;;;3.05;2.00;;;7.30;99.90;;;;;;5051776;28;20021;-76
2020/12/09 03:34:31;;;;;;;2.17;2.08;;;7.30;99.90;;;;;;5097613;27;20058;-76
2020/12/09 03:36:56;;;;;;;2.22;2.13;;;7.30;99.90;;;;;;5150227;27;20061;-76
2020/12/09 03:39:22;;;;;;;3.22;2.90;;;7.30;99.90;;;;;;5051436;28;20056;-76
2020/12/09 03:41:48;;;;;;;2.55;2.35;;;7.30;99.90;;;;;;5051455;28;20021;-76
2020/12/09 03:44:13;;;;;;;2.75;2.47;;;7.30;99.90;;;;;;5050071;28;20057;-76
2020/12/09 03:46:39;;;;;;;2.75;2.55;;;7.30;99.90;;;;;;5051238;28;20052;-76
2020/12/09 03:49:05;;;;;;;2.63;2.42;;;7.30;99.90;;;;;;5049657;28;20025;-76
2020/12/09 03:51:30;;;;;;;2.45;2.25;;;7.30;99.90;;;;;;5050716;28;20377;-76
2020/12/09 03:53:59;;;;;;;2.10;2.00;;;7.30;99.90;;;;;;5051265;28;20025;-76
2020/12/09 03:56:24;;;;;;;2.42;2.33;;;7.30;99.90;;;;;;5050827;28;20040;-76
2020/12/09 03:58:50;;;;;;;1.88;1.63;;;7.30;99.90;;;;;;5051192;28;20025;-76
2020/12/09 04:01:17;;;;;;;2.67;1.90;;;7.20;99.90;;;;;;5049764;28;20037;-76
2020/12/09 04:03:43;;;;;;;4.38;3.53;;;7.20;99.90;;;;;;5050878;28;20025;-76
2020/12/09 04:06:09;;;;;;;5.13;2.92;;;7.20;99.90;;;;;;5049458;28;20089;-76
2020/12/09 04:08:35;;;;;;;3.75;2.00;;;7.20;99.90;;;;;;5049602;28;20449;-76
2020/12/09 04:11:00;;;;;;;1.60;1.50;;;7.30;99.90;;;;;;5049885;28;20021;-76
2020/12/09 04:13:26;;;;;;;1.80;1.70;;;7.30;99.90;;;;;;5050705;28;20495;-76
2020/12/09 04:15:52;;;;;;;1.90;1.80;;;7.30;99.90;;;;;;5050597;28;20109;-76
2020/12/09 04:18:17;;;;;;;4.30;1.95;;;7.30;99.90;;;;;;5050672;28;20043;-76
2020/12/09 04:20:43;;;;;;;1.77;1.63;;;7.30;99.90;;;;;;5050708;28;20499;-76
2020/12/09 04:23:08;;;;;;;1.90;1.80;;;7.30;99.90;;;;;;5050376;28;20025;-76
2020/12/09 04:25:34;;;;;;;2.65;2.17;;;7.30;99.90;;;;;;5050709;28;20017;-76
2020/12/09 04:28:00;;;;;;;1.80;1.70;;;7.30;99.90;;;;;;5050490;28;20028;-76
2020/12/09 04:30:25;;;;;;;2.03;1.52;;;7.30;99.90;;;;;;5049540;28;20028;-76
2020/12/09 04:32:51;;;;;;;2.03;1.80;;;7.40;99.90;;;;;;5049308;28;20021;-76
2020/12/09 04:35:17;;;;;;;1.90;1.70;;;7.30;99.90;;;;;;5050415;28;20025;-76
2020/12/09 04:37:45;;;;;;;3.15;2.95;;;7.30;99.90;;;;;;5050489;28;20035;-76
2020/12/09 04:40:10;;;;;;;4.57;4.05;;;7.30;99.90;;;;;;5049056;28;20025;-76
2020/12/09 04:42:36;;;;;;;4.93;4.43;;;7.30;99.90;;;;;;5050423;28;20503;-76
2020/12/09 04:45:03;;;;;;;7.38;3.53;;;7.30;99.90;;;;;;5049092;28;20502;-76
2020/12/09 04:47:40;;;;;;;4.65;3.60;;;7.30;99.90;;;;;;5050196;28;20028;-75
2020/12/09 04:50:10;;;;;;;4.55;3.63;;;7.30;99.90;;;;;;5050352;28;20056;-76
2020/12/09 04:52:43;;;;;;;2.70;2.45;;;7.30;99.90;;;;;;5048675;28;20025;-76
2020/12/09 04:55:12;;;;;;;2.58;2.28;;;7.30;99.90;;;;;;5050253;28;20025;-76
2020/12/09 04:57:37;;;;;;;8.02;7.43;;;7.30;99.90;;;;;;5050237;28;20033;-76
2020/12/09 05:00:12;;;;;;;6.18;5.75;;;7.30;99.90;;;;;;5048897;28;20097;-76
2020/12/09 05:02:48;;;;;;;2.53;2.33;;;7.30;99.90;;;;;;5048984;28;20060;-76
2020/12/09 05:05:16;;;;;;;2.00;1.85;;;7.30;99.90;;;;;;5050181;28;20381;-76
2020/12/09 05:07:48;;;;;;;2.05;1.95;;;7.40;99.90;;;;;;5049396;28;20025;-76
2020/12/09 05:10:19;;;;;;;2.78;2.20;;;7.40;99.90;;;;;;5049258;28;20073;-76
2020/12/09 05:12:49;;;;;;;3.08;2.22;;;7.30;99.90;;;;;;5049771;28;20041;-76
2020/12/09 05:15:25;;;;;;;4.25;1.92;;;7.30;99.90;;;;;;5049851;28;20496;-76
2020/12/09 05:18:06;;;;;;;2.10;1.90;;;7.40;99.90;;;;;;5048344;28;20033;-76
2020/12/09 05:20:38;;;;;;;2.03;1.92;;;7.30;99.90;;;;;;5049578;28;20029;-76
2020/12/09 05:23:05;;;;;;;1.90;1.80;;;7.30;99.90;;;;;;5048601;28;20050;-76
2020/12/09 05:25:38;;;;;;;2.42;2.22;;;7.30;99.90;;;;;;5050043;28;20025;-76
2020/12/09 05:28:05;;;;;;;2.60;2.40;;;7.40;99.90;;;;;;5049662;28;20105;-76
2020/12/09 05:30:46;;;;;;;2.85;2.42;;;7.40;99.90;;;;;;5044767;28;20033;-76
2020/12/09 05:33:18;;;;;;;3.15;2.95;;;7.30;99.90;;;;;;5030044;28;20051;-76
2020/12/09 05:36:00;;;;;;;2.60;2.40;;;7.30;99.90;;;;;;5028640;28;20045;-76
2020/12/09 05:38:27;;;;;;;3.92;3.58;;;7.30;99.90;;;;;;5028392;28;20025;-75
2020/12/09 05:40:54;;;;;;;5.43;4.95;;;7.30;99.90;;;;;;5043270;28;20063;-76
2020/12/09 05:43:19;;;;;;;4.18;3.78;;;7.30;99.90;;;;;;5048417;28;20048;-76
2020/12/09 05:45:45;;;;;;;5.47;3.97;;;7.30;99.90;;;;;;5048474;28;20457;-76
2020/12/09 05:48:22;;;;;;;3.60;3.08;;;7.30;99.90;;;;;;5047451;28;20492;-76
2020/12/09 05:50:59;;;;;;;3.42;3.22;;;7.30;99.90;;;;;;5049452;28;20021;-76
2020/12/09 05:53:29;;;;;;;4.30;3.90;;;7.30;99.90;;;;;;5049449;28;20021;-76
2020/12/09 05:56:18;;;;;;;4.57;3.50;;;7.30;99.90;;;;;;5049518;28;20605;-76
2020/12/09 05:58:50;;;;;;;4.25;3.63;;;7.30;99.90;;;;;;5049036;28;20021;-76
2020/12/09 06:01:20;;;;;;;3.47;3.22;;;7.30;99.90;;;;;;5049426;28;20484;-76
2020/12/09 06:03:52;;;;;;;3.60;3.30;;;7.30;99.90;;;;;;5047967;28;20108;-76
2020/12/09 06:06:23;;;;;;;3.33;3.13;;;7.30;99.90;;;;;;5049150;28;20025;-76
2020/12/09 06:08:54;;;;;;;4.03;3.72;;;7.20;99.90;;;;;;5034983;28;20029;-77
2020/12/09 06:11:25;;;;;;;4.10;3.80;;;7.20;99.90;;;;;;5029448;28;20365;-76
2020/12/09 06:13:51;;;;;;;4.05;3.78;;;7.20;99.90;;;;;;5031737;28;20522;-76
2020/12/09 06:16:18;;;;;;;4.30;4.00;;;7.20;99.90;;;;;;5045385;28;20029;-75
2020/12/09 06:18:46;;;;;;;4.30;4.00;;;7.20;99.90;;;;;;5051453;28;20025;-77
2020/12/09 06:21:12;;;;;;;4.68;4.28;;;7.20;99.90;;;;;;5052528;28;20048;-75
2020/12/09 06:23:39;;;;;;;4.88;4.47;;;7.20;99.90;;;;;;5052701;28;20369;-76
2020/12/09 06:26:06;;;;;;;5.20;4.70;;;7.20;99.90;;;;;;5052135;28;20026;-76
2020/12/09 06:28:51;;;;;;;6.60;5.97;;;7.20;99.90;;;;;;5052432;28;20029;-76
2020/12/09 06:31:21;;;;;;;5.75;4.80;;;7.30;99.90;;;;;;5052078;28;20033;-76
2020/12/09 06:33:48;;;;;;;5.32;4.82;;;7.30;99.90;;;;;;5052240;28;20037;-76
2020/12/09 06:36:22;;;;;;;6.53;4.82;;;7.30;99.90;;;;;;5051853;28;20041;-76
2020/12/09 06:39:13;;;;;;;5.25;4.75;;;7.30;99.90;;;;;;5052045;28;20109;-76
2020/12/09 06:41:55;;;;;;;5.82;5.22;;;7.30;99.90;;;;;;5052399;28;20029;-76
2020/12/09 06:44:29;;;;;;;5.88;5.38;;;7.30;99.90;;;;;;5052028;28;20100;-76
2020/12/09 06:46:56;;;;;;;6.07;5.22;;;7.30;99.90;;;;;;5052060;28;20438;-75
2020/12/09 06:49:34;;;;;;;5.47;4.90;;;7.30;99.90;;;;;;5044215;28;20465;-76
2020/12/09 06:52:09;;;;;;;5.70;5.20;;;7.30;99.90;;;;;;5032322;28;20025;-76
2020/12/09 06:54:47;;;;;;;6.15;4.22;;;7.30;99.90;;;;;;5045481;28;20036;-76
2020/12/09 06:57:21;;;;;;;4.35;4.05;;;7.30;99.90;;;;;;5050906;28;20017;-76
2020/12/09 06:59:49;;;;;;;4.93;4.43;;;7.30;99.90;;;;;;5052130;28;20073;-76
2020/12/09 07:02:29;;;;;;;4.57;4.18;;;7.20;99.90;;;;;;5070840;27;20388;-79
2020/12/09 07:04:54;;;;;;;4.72;4.32;;;7.20;99.90;;;;;;5046643;28;20017;-79
2020/12/09 07:07:26;;;;;;;5.07;4.03;;;7.30;99.90;;;;;;5061077;27;20528;-79
2020/12/09 07:09:52;;;;;;;5.20;4.80;;;7.30;99.90;;;;;;5050517;28;20513;-78
2020/12/09 07:12:22;;;;;;;5.95;5.40;;;7.30;99.90;;;;;;5050625;28;20072;-79
2020/12/09 07:14:52;;;;;;;7.35;5.35;;;7.20;99.90;;;;;;5051197;28;20377;-78
2020/12/09 07:17:20;;;;;;;5.55;5.05;;;7.20;99.90;;;;;;5051425;28;20032;-79
2020/12/09 07:19:46;;;;;;;9.15;7.22;;;7.20;99.90;;;;;;5051684;28;20062;-79
2020/12/09 07:22:11;;;;;;;14.43;9.07;;;7.20;99.90;;;;;;5051593;28;20049;-79
2020/12/09 07:24:37;;;;;;;14.73;9.55;;;7.20;99.90;;;;;;5050905;28;20113;-79
2020/12/09 07:27:03;;;;;;;12.68;8.40;;;7.20;99.90;;;;;;5051439;28;20041;-79
2020/12/09 07:29:29;;;;;;;8.25;7.43;;;7.20;99.90;;;;;;5050204;28;20040;-78
2020/12/09 07:31:59;;;;;;;8.98;7.53;;;7.20;99.90;;;;;;5051613;28;20023;-79
2020/12/09 07:34:25;;;;;;;7.28;6.68;;;7.20;99.90;;;;;;5051506;28;20044;-79
2020/12/09 07:36:53;;;;;;;7.57;6.10;;;7.20;99.90;;;;;;5051406;28;20051;-79
2020/12/09 07:39:32;;;;;;;6.80;6.20;;;7.20;99.90;;;;;;5050241;28;20056;-79
2020/12/09 07:41:59;;;;;;;8.93;7.57;;;7.20;99.90;;;;;;5051594;28;20147;-79
2020/12/09 07:44:25;;;;;;;10.40;7.75;;;7.20;99.90;;;;;;5051627;28;20460;-79
2020/12/09 07:46:59;;;;;;;12.77;9.25;;;7.20;99.90;;;;;;5051244;28;20024;-79
2020/12/09 07:49:25;;;;;;;12.50;9.88;;;7.20;99.90;;;;;;5050213;28;20025;-79
2020/12/09 07:51:53;;;;;;;12.25;9.45;;;7.20;99.90;;;;;;5050022;28;20461;-79
2020/12/09 07:54:23;;;;;;;13.95;10.57;;;7.20;99.90;;;;;;5051282;28;20399;-79
2020/12/09 07:56:48;;;;;;;13.38;9.68;;;7.20;99.90;;;;;;5040121;28;20078;-76
2020/12/09 07:59:15;;;;;;;12.77;9.48;;;7.20;99.90;;;;;;5045821;28;20025;-78
2020/12/09 08:01:41;;;;;;;13.48;10.32;;;7.30;99.90;;;;;;5050623;28;20100;-78
2020/12/09 08:04:07;;;;;;;12.15;9.27;;;7.30;99.90;;;;;;5050811;28;20120;-78
2020/12/09 08:06:36;;;;;;;10.75;9.65;;;7.30;99.90;;;;;;5049674;28;20428;-78
2020/12/09 08:09:15;;;;;;;12.48;9.52;;;7.30;99.90;;;;;;5040558;28;20025;-76
2020/12/09 08:11:44;;;;;;;11.45;9.32;;;7.30;99.90;;;;;;5044955;28;20508;-75
2020/12/09 08:14:13;;;;;;;12.43;10.75;;;7.30;99.90;;;;;;5049294;27;20021;-78
2020/12/09 08:16:40;;;;;;;12.38;10.38;;;7.30;99.90;;;;;;5050541;28;20085;-78
2020/12/09 08:19:12;;;;;;;11.35;10.15;;;7.30;99.90;;;;;;5050428;28;20029;-78
2020/12/09 08:21:38;;;;;;;12.23;10.10;;;7.30;99.90;;;;;;5050340;27;20057;-79
2020/12/09 08:24:12;;;;;;;13.10;9.63;;;7.30;99.90;;;;;;5120560;27;20025;-79
2020/12/09 08:26:38;;;;;;;13.70;10.38;;;7.30;99.90;;;;;;5049454;28;20028;-78
2020/12/09 08:29:05;;;;;;;12.65;10.48;;;7.30;99.90;;;;;;5050759;28;20540;-78
2020/12/09 08:31:31;;;;;;;11.10;9.68;;;7.40;99.90;;;;;;5049423;28;20053;-79
2020/12/09 08:33:58;;;;;;;10.60;9.45;;;7.40;99.90;;;;;;5049245;28;20029;-79
2020/12/09 08:36:24;;;;;;;11.38;9.73;;;7.40;99.90;;;;;;5050597;28;20107;-79
2020/12/09 08:39:00;;;;;;;13.85;10.05;;;7.40;99.90;;;;;;5050652;28;20367;-79
2020/12/09 08:41:27;;;;;;;14.27;10.10;;;7.40;99.90;;;;;;5050440;28;20161;-79
2020/12/09 08:43:57;;;;;;;12.00;9.68;;;7.40;99.90;;;;;;5050508;28;20078;-79
2020/12/09 08:46:24;;;;;;;10.77;8.80;;;7.40;99.90;;;;;;5049178;28;20488;-79
2020/12/09 08:48:50;;;;;;;11.10;9.20;;;7.40;99.90;;;;;;5049214;28;20476;-79
2020/12/09 08:51:21;;;;;;;14.57;10.60;;;7.40;99.90;;;;;;5049171;28;20384;-79
2020/12/09 08:53:47;;;;;;;13.93;11.93;;;7.40;99.90;;;;;;5050333;28;20029;-79
2020/12/09 08:56:12;;;;;;;15.18;11.38;;;7.40;99.90;;;;;;5050297;28;20480;-79
2020/12/09 08:58:38;;;;;;;15.13;12.25;;;7.40;99.90;;;;;;5049032;28;20029;-78
2020/12/09 09:01:04;;;;;;;6.50;5.75;;;7.40;99.90;;;;;;5050252;28;20042;-84
2020/12/09 09:03:33;;;;;;;12.18;9.77;;;7.50;99.90;;;;;;5048978;28;20152;-77
2020/12/09 09:05:59;;;;;;;14.32;11.20;;;7.90;99.90;;;;;;5050090;28;20074;-77
2020/12/09 09:08:24;;;;;;;14.25;11.88;;;7.80;99.90;;;;;;5048926;28;20029;-77
2020/12/09 09:10:51;;;;;;;16.45;11.93;;;7.70;99.90;;;;;;5050126;28;20384;-78
2020/12/09 09:13:17;;;;;;;17.45;11.85;;;7.60;99.90;;;;;;5049973;28;20048;-78
2020/12/09 09:15:43;;;;;;;15.05;11.00;;;7.50;99.90;;;;;;5048769;28;20065;-78
2020/12/09 09:18:09;;;;;;;12.55;10.48;;;7.50;99.90;;;;;;5033824;28;20492;-78
2020/12/09 09:20:35;;;;;;;12.18;10.63;;;7.50;99.90;;;;;;5028919;28;20074;-78
2020/12/09 09:23:02;;;;;;;13.65;10.35;;;7.50;99.90;;;;;;5028739;28;20029;-77
2020/12/09 09:25:28;;;;;;;21.45;10.27;;;7.50;99.90;;;;;;5029843;28;20044;-78
2020/12/09 09:27:54;;;;;;;24.52;10.90;;;7.50;99.90;;;;;;5029879;28;20100;-78
2020/12/09 09:30:23;;;;;;;12.98;10.55;;;7.50;99.90;;;;;;5029931;28;20372;-78
2020/12/09 09:32:50;;;;;;;12.18;10.15;;;7.50;99.90;;;;;;5028661;28;20447;-77
2020/12/09 09:35:17;;;;;;;14.38;10.15;;;7.60;99.90;;;;;;5028677;28;20029;-77
2020/12/09 09:37:43;;;;;;;14.48;9.88;;;7.60;99.90;;;;;;5028677;28;20060;-78
2020/12/09 09:40:10;;;;;;;10.85;8.60;;;7.60;99.90;;;;;;5029784;28;20029;-78
2020/12/09 09:42:36;;;;;;;10.35;8.50;;;7.60;99.90;;;;;;5029637;28;20036;-77
2020/12/09 09:45:03;;;;;;;10.48;8.18;;;7.60;99.90;;;;;;5028363;28;20502;-77
2020/12/09 09:47:29;;;;;;;7.68;6.88;;;7.60;99.90;;;;;;5029896;28;20033;-77
2020/12/09 09:49:55;;;;;;;7.93;6.75;;;7.70;99.90;;;;;;5033358;28;20033;-77
2020/12/09 09:52:21;;;;;;;6.80;6.22;;;7.70;99.90;;;;;;5033269;28;20061;-77
2020/12/09 09:54:46;;;;;;;5.82;5.32;;;7.60;99.90;;;;;;5031912;28;20029;-77
2020/12/09 09:57:12;;;;;;;6.18;5.63;;;7.60;99.90;;;;;;5033103;28;20392;-77
2020/12/09 09:59:38;;;;;;;6.25;5.53;;;7.60;99.90;;;;;;5033138;28;20395;-77
2020/12/09 10:02:04;;;;;;;6.63;5.68;;;7.60;99.90;;;;;;5040814;28;20029;-77
2020/12/09 10:04:29;;;;;;;6.70;5.15;;;7.60;99.90;;;;;;5032973;28;20030;-77
2020/12/09 10:06:55;;;;;;;5.45;4.95;;;7.60;99.90;;;;;;5048289;28;20025;-77
2020/12/09 10:09:21;;;;;;;5.63;5.13;;;7.60;99.90;;;;;;5032996;28;20057;-77
2020/12/09 10:11:47;;;;;;;6.20;5.60;;;7.60;99.90;;;;;;5048085;28;20049;-77
2020/12/09 10:14:13;;;;;;;10.15;8.60;;;7.60;99.90;;;;;;5032875;28;20033;-77
2020/12/09 10:16:42;;;;;;;15.18;10.82;;;7.60;99.90;;;;;;5035287;28;20041;-77
2020/12/09 10:19:08;;;;;;;16.23;13.13;;;7.50;99.90;;;;;;5051527;28;20067;-77
2020/12/09 10:21:34;;;;;;;16.48;12.75;;;7.50;99.90;;;;;;5051539;28;20070;-77
2020/12/09 10:24:02;;;;;;;15.82;13.00;;;7.60;99.90;;;;;;5051275;28;20025;-77
2020/12/09 10:26:43;;;;;;;20.42;14.50;;;7.60;99.90;;;;;;5052451;28;20025;-78
2020/12/09 10:29:10;;;;;;;16.73;12.95;;;7.60;99.90;;;;;;5052644;28;20151;-78
2020/12/09 10:31:44;;;;;;;11.07;9.98;;;7.60;99.90;;;;;;5052610;28;20033;-77
2020/12/09 10:34:11;;;;;;;14.77;11.45;;;7.60;99.90;;;;;;5051344;28;20033;-78
2020/12/09 10:36:38;;;;;;;10.38;8.85;;;7.60;99.90;;;;;;5051247;28;20388;-77
2020/12/09 10:39:05;;;;;;;17.58;11.50;;;7.60;99.90;;;;;;5052434;28;20040;-77
2020/12/09 10:41:31;;;;;;;10.70;9.02;;;7.70;99.90;;;;;;5051110;28;20074;-77
2020/12/09 10:43:57;;;;;;;11.45;9.77;;;7.70;99.90;;;;;;5052360;28;20556;-77
2020/12/09 10:46:34;;;;;;;15.40;10.10;;;7.70;99.90;;;;;;5051083;28;20108;-77
2020/12/09 10:49:04;;;;;;;8.50;7.70;;;7.70;99.90;;;;;;5051089;28;20116;-79
2020/12/09 10:51:31;;;;;;;7.00;6.25;;;7.70;99.90;;;;;;5052294;28;20021;-77
2020/12/09 10:53:57;;;;;;;8.13;7.30;;;7.60;99.90;;;;;;5052301;28;20025;-77
2020/12/09 10:56:31;;;;;;;8.90;7.13;;;7.70;99.90;;;;;;5052214;28;20056;-77
2020/12/09 10:58:58;;;;;;;7.03;6.43;;;7.70;99.90;;;;;;5051546;28;20036;-79
2020/12/09 11:01:27;;;;;;;6.32;5.60;;;7.70;99.90;;;;;;5051566;28;20025;-79
2020/12/09 11:03:54;;;;;;;7.53;6.82;;;7.70;99.90;;;;;;5051944;28;20039;-79
2020/12/09 11:06:29;;;;;;;7.90;6.60;;;7.70;99.90;;;;;;5051917;28;20021;-79
2020/12/09 11:08:56;;;;;;;7.45;6.68;;;7.70;99.90;;;;;;5051974;28;20021;-79
2020/12/09 11:11:23;;;;;;;6.30;5.80;;;7.70;99.90;;;;;;5051768;28;20052;-79
2020/12/09 11:13:49;;;;;;;6.07;5.50;;;7.70;99.90;;;;;;5050657;28;20033;-79
2020/12/09 11:16:19;;;;;;;6.30;5.78;;;7.70;99.90;;;;;;5050491;28;20025;-79
2020/12/09 11:18:45;;;;;;;9.13;5.78;;;7.70;99.90;;;;;;5050553;28;20116;-79
2020/12/09 11:21:16;;;;;;;7.22;6.32;;;7.60;99.90;;;;;;5051943;28;20540;-79
2020/12/09 11:23:42;;;;;;;9.77;7.33;;;7.60;99.90;;;;;;5050483;28;20025;-79
2020/12/09 11:26:08;;;;;;;6.95;6.25;;;7.60;99.90;;;;;;5046918;27;20274;-79
2020/12/09 11:28:34;;;;;;;15.68;10.60;;;7.50;99.90;;;;;;5046246;28;20013;-79
2020/12/09 11:30:59;;;;;;;12.10;7.70;;;7.60;99.90;;;;;;5043720;28;20025;-79
2020/12/09 11:33:25;;;;;;;6.63;5.78;;;7.50;99.90;;;;;;5039349;28;20025;-79
2020/12/09 11:35:51;;;;;;;8.82;6.45;;;7.50;99.90;;;;;;5029488;28;20026;-79
2020/12/09 11:38:16;;;;;;;8.45;7.53;;;7.50;99.90;;;;;;5046050;28;20028;-79
2020/12/09 11:40:43;;;;;;;7.45;6.60;;;7.50;99.90;;;;;;5030145;28;20540;-79
2020/12/09 11:43:08;;;;;;;6.05;5.45;;;7.50;99.90;;;;;;5034552;28;20023;-79
2020/12/09 11:45:35;;;;;;;5.47;5.00;;;7.50;99.90;;;;;;5041052;28;20032;-79
2020/12/09 11:48:01;;;;;;;8.20;7.30;;;7.50;99.90;;;;;;5046814;28;20025;-79
2020/12/09 11:50:27;;;;;;;9.75;7.88;;;7.50;99.90;;;;;;5047346;28;20476;-79
2020/12/09 11:52:53;;;;;;;7.00;6.30;;;7.50;99.90;;;;;;5047261;28;20069;-79
2020/12/09 11:55:19;;;;;;;6.78;6.00;;;7.50;99.90;;;;;;5047963;28;20024;-79
2020/12/09 11:57:44;;;;;;;8.68;7.47;;;7.50;99.90;;;;;;5044946;28;20441;-79
2020/12/09 12:00:10;;;;;;;8.25;7.40;;;7.50;99.90;;;;;;5037140;28;20033;-79
2020/12/09 12:02:35;;;;;;;7.82;6.90;;;7.50;99.90;;;;;;5043508;28;20025;-79
2020/12/09 12:05:02;;;;;;;7.95;6.60;;;7.50;99.90;;;;;;5048482;28;20033;-79
2020/12/09 12:07:28;;;;;;;6.68;5.97;;;7.50;99.90;;;;;;5042532;28;20113;-79
2020/12/09 12:09:54;;;;;;;6.78;6.07;;;7.50;99.90;;;;;;5037537;28;20100;-79
2020/12/09 12:12:19;;;;;;;8.00;7.28;;;7.50;99.90;;;;;;5047491;28;20049;-79
2020/12/09 12:14:45;;;;;;;9.80;7.28;;;7.50;99.90;;;;;;5048391;28;20103;-79
2020/12/09 12:17:12;;;;;;;10.13;7.80;;;7.60;99.90;;;;;;5048377;28;20035;-79
2020/12/09 12:19:38;;;;;;;8.15;7.35;;;7.50;99.90;;;;;;5046349;28;20025;-79
2020/12/09 12:22:06;;;;;;;9.52;6.95;;;7.50;99.90;;;;;;5043275;28;20056;-79
2020/12/09 12:24:33;;;;;;;10.10;7.30;;;7.50;99.90;;;;;;5036911;28;20120;-79
2020/12/09 12:26:58;;;;;;;10.65;8.60;;;7.50;99.90;;;;;;5044979;28;20033;-79
2020/12/09 12:29:24;;;;;;;9.93;8.70;;;7.40;99.90;;;;;;5041889;28;20036;-79
2020/12/09 12:31:50;;;;;;;9.73;8.00;;;7.40;99.90;;;;;;5042094;28;20039;-79
2020/12/09 12:34:15;;;;;;;16.17;8.85;;;7.30;99.90;;;;;;5046761;28;20040;-79
2020/12/09 12:36:41;;;;;;;15.85;10.88;;;7.30;99.90;;;;;;5046482;28;20050;-79
2020/12/09 12:39:08;;;;;;;25.63;19.00;;;7.30;99.90;;;;;;5047874;28;20040;-79
2020/12/09 12:41:33;;;;;;;17.13;11.73;;;7.30;99.90;;;;;;5047137;28;20048;-79
2020/12/09 12:43:59;;;;;;;10.38;9.10;;;7.30;99.90;;;;;;5028475;28;20477;-79
2020/12/09 12:46:25;;;;;;;6.00;5.45;;;7.30;99.90;;;;;;5041823;28;20057;-79
2020/12/09 12:48:50;;;;;;;4.10;3.75;;;7.30;99.90;;;;;;5039005;28;20131;-79
2020/12/09 12:51:20;;;;;;;5.78;4.45;;;7.30;99.90;;;;;;5039953;28;20029;-79
2020/12/09 12:53:46;;;;;;;4.95;4.55;;;7.30;99.90;;;;;;5047534;28;20025;-79
2020/12/09 12:56:30;;;;;;;7.20;6.32;;;7.30;99.90;;;;;;5047326;28;20048;-79